Time;durP1;ratioP1;P1;durP2;ratioP2;P2;SDS_P1;SDS_P2;PMS_P1;PMS_P2;Temp;Humidity;BMP_temperature;BMP_pressure;BME280_temperature;BME280_humidity;BME280_pressure;Samples;Min_cycle;Max_cycle;Signal;HPM_P1;HPM_P2
2022/05/30 00:02:10;;;;;;;3.33;3.03;;;;;;;7.34;100.00;99627.56;4998383;28;20698;-59
2022/05/30 00:04:39;;;;;;;3.67;3.37;;;;;;;7.32;100.00;99623.44;4992892;28;20189;-59
2022/05/30 00:07:06;;;;;;;3.63;2.77;;;;;;;7.21;100.00;99629.09;4990865;28;20183;-58
2022/05/30 00:09:31;;;;;;;3.13;2.80;;;;;;;7.22;100.00;99623.91;4991140;28;20271;-59
2022/05/30 00:11:56;;;;;;;3.87;2.97;;;;;;;7.10;100.00;99619.38;4988408;28;20639;-59
2022/05/30 00:14:22;;;;;;;3.77;2.63;;;;;;;7.03;100.00;99625.69;5009853;28;20181;-59
2022/05/30 00:16:47;;;;;;;3.80;3.07;;;;;;;7.00;100.00;99621.53;5011669;28;20235;-59
2022/05/30 00:19:12;;;;;;;3.33;3.03;;;;;;;7.09;100.00;99617.72;5012220;28;20176;-59
2022/05/30 00:21:38;;;;;;;3.37;3.07;;;;;;;7.11;100.00;99619.28;5001087;28;20235;-59
2022/05/30 00:24:03;;;;;;;4.00;2.90;;;;;;;7.14;100.00;99620.06;5011762;28;20507;-58
2022/05/30 00:26:29;;;;;;;3.20;2.90;;;;;;;7.12;100.00;99615.03;5010848;28;20638;-59
2022/05/30 00:28:54;;;;;;;3.17;2.87;;;;;;;7.09;100.00;99617.72;5011724;28;20179;-58
2022/05/30 00:31:20;;;;;;;3.37;2.97;;;;;;;7.06;100.00;99613.56;5001332;28;20226;-58
2022/05/30 00:33:47;;;;;;;4.27;3.17;;;;;;;7.04;100.00;99622.22;5004781;28;20628;-61
2022/05/30 00:36:13;;;;;;;4.17;3.00;;;;;;;7.02;100.00;99617.19;5009845;28;20212;-58
2022/05/30 00:38:39;;;;;;;3.53;3.23;;;;;;;7.03;100.00;99613.72;5010422;28;20587;-59
2022/05/30 00:41:06;;;;;;;3.27;3.00;;;;;;;6.97;100.00;99618.28;5001391;28;20227;-60
2022/05/30 00:43:37;;;;;;;5.83;3.00;;;;;;;6.89;100.00;99611.81;4996907;28;20186;-59
2022/05/30 00:46:07;;;;;;;4.93;3.13;;;;;;;6.83;100.00;99611.28;4990372;28;20175;-62
2022/05/30 00:48:41;;;;;;;4.17;3.10;;;;;;;6.74;100.00;99605.69;4990962;28;20215;-59
2022/05/30 00:51:12;;;;;;;4.00;3.10;;;;;;;6.75;100.00;99596.31;4990425;28;20253;-58
2022/05/30 00:53:40;;;;;;;4.67;3.47;;;;;;;6.77;100.00;99604.72;4990302;28;20180;-58
2022/05/30 00:56:09;;;;;;;5.53;3.27;;;;;;;6.77;100.00;99605.56;4989911;28;20213;-58
2022/05/30 00:58:38;;;;;;;6.07;3.80;;;;;;;6.76;100.00;99608.16;4990710;28;20234;-59
2022/05/30 01:01:05;;;;;;;6.07;3.87;;;;;;;6.66;100.00;99602.69;4993367;28;20308;-59
2022/05/30 01:06:32;;;;;;;5.40;3.80;;;;;;;6.60;100.00;99602.97;5011045;28;20194;-59
2022/05/30 01:09:00;;;;;;;6.80;3.37;;;;;;;6.58;100.00;99604.75;5010844;28;20190;-59
2022/05/30 01:11:26;;;;;;;4.00;3.40;;;;;;;6.69;100.00;99602.53;4999855;28;20238;-62
2022/05/30 01:13:51;;;;;;;3.73;3.40;;;;;;;6.64;100.00;99601.91;5010831;28;20652;-60
2022/05/30 01:16:16;;;;;;;4.13;3.73;;;;;;;6.67;100.00;99595.81;5010916;28;20243;-59
2022/05/30 01:19:01;;;;;;;5.33;3.43;;;;;;;6.58;100.00;99595.34;5011234;28;20191;-59
2022/05/30 01:21:48;;;;;;;3.93;3.10;;;;;;;6.60;100.00;99598.66;5000630;28;20248;-59
2022/05/30 01:24:59;;;;;;;4.60;4.20;;;;;;;6.55;100.00;99594.66;5008075;28;20495;-59
2022/05/30 01:27:44;;;;;;;5.73;3.90;;;;;;;6.58;100.00;99589.41;5009510;28;20244;-59
2022/05/30 01:30:15;;;;;;;4.17;3.63;;;;;;;6.57;100.00;99585.19;4999882;28;20604;-59
2022/05/30 01:32:40;;;;;;;4.87;4.00;;;;;;;6.55;100.00;99580.16;5009942;28;20179;-59
2022/05/30 01:35:07;;;;;;;4.73;4.33;;;;;;;6.39;100.00;99592.00;5011015;28;20197;-59
2022/05/30 01:37:32;;;;;;;4.50;4.03;;;;;;;6.38;100.00;99587.78;5011611;28;20171;-60
2022/05/30 01:39:57;;;;;;;5.77;4.37;;;;;;;6.41;100.00;99592.72;5015189;28;20284;-59
2022/05/30 01:42:22;;;;;;;5.23;4.37;;;;;;;6.39;100.00;99594.56;5004220;28;20233;-59
2022/05/30 01:44:48;;;;;;;9.50;4.60;;;;;;;6.40;100.00;99586.81;4999424;28;20262;-59
2022/05/30 01:47:13;;;;;;;4.63;4.13;;;;;;;6.39;100.00;99580.03;4993534;28;20176;-59
2022/05/30 01:49:39;;;;;;;5.43;4.40;;;;;;;6.43;100.00;99583.28;4995074;28;20175;-59
2022/05/30 01:52:05;;;;;;;4.63;4.23;;;;;;;6.42;100.00;99590.09;5000602;28;20222;-59
2022/05/30 01:54:30;;;;;;;5.47;4.23;;;;;;;6.40;100.00;99586.81;4994047;28;20179;-60
2022/05/30 01:56:55;;;;;;;5.37;4.40;;;;;;;6.35;100.00;99577.69;4994571;28;20207;-59
2022/05/30 01:59:21;;;;;;;5.40;4.53;;;;;;;6.32;100.00;99576.09;4993979;28;20202;-61
2022/05/30 02:01:46;;;;;;;5.80;4.73;;;;;;;6.30;100.00;99571.06;4998306;28;20222;-60
2022/05/30 02:04:16;;;;;;;5.87;5.20;;;;;;;6.23;100.00;99574.78;4997014;28;20182;-61
2022/05/30 02:06:42;;;;;;;4.97;4.47;;;;;;;6.18;100.00;99573.31;5005389;28;20285;-60
2022/05/30 02:09:07;;;;;;;5.60;5.00;;;;;;;6.20;100.00;99579.22;4993409;28;20341;-60
2022/05/30 02:11:34;;;;;;;5.83;5.33;;;;;;;6.13;100.00;99576.09;4984151;28;20227;-59
2022/05/30 02:13:59;;;;;;;5.20;4.77;;;;;;;6.14;100.00;99585.44;4996740;28;20233;-59
2022/05/30 02:19:09;;;;;;;7.47;5.97;;;;;;;6.03;100.00;99578.25;4994670;28;20596;-60
2022/05/30 02:21:35;;;;;;;8.10;5.60;;;;;;;6.08;100.00;99571.19;4983976;28;20243;-60
2022/05/30 02:24:06;;;;;;;7.97;6.30;;;;;;;6.13;100.00;99576.09;5006096;28;20199;-61
2022/05/30 02:26:34;;;;;;;7.17;6.47;;;;;;;6.09;100.00;99572.00;4999262;28;20186;-61
2022/05/30 02:28:59;;;;;;;7.07;6.00;;;;;;;6.11;100.00;99573.59;5012928;28;20525;-60
2022/05/30 02:31:25;;;;;;;11.23;5.47;;;;;;;6.07;100.00;99572.09;5003519;28;20237;-60
2022/05/30 02:36:40;;;;;;;5.93;5.33;;;;;;;6.02;100.00;99575.75;5013520;28;20234;-60
2022/05/30 02:39:07;;;;;;;5.83;5.23;;;;;;;6.01;100.00;99574.09;5012854;28;20190;-60
2022/05/30 02:41:33;;;;;;;7.43;6.07;;;;;;;5.99;100.00;99563.94;5005680;28;20279;-60
2022/05/30 02:43:59;;;;;;;7.43;6.17;;;;;;;5.97;100.00;99563.16;5012490;28;20600;-61
2022/05/30 02:46:24;;;;;;;5.80;5.20;;;;;;;5.94;100.00;99569.22;5013242;28;20665;-59
2022/05/30 02:48:50;;;;;;;6.77;5.83;;;;;;;5.94;100.00;99569.22;5013490;28;20210;-60
2022/05/30 02:51:15;;;;;;;5.97;5.47;;;;;;;5.94;100.00;99564.13;5003351;28;20241;-59
2022/05/30 02:53:41;;;;;;;7.27;5.60;;;;;;;5.91;100.00;99565.97;5013036;28;20179;-59
2022/05/30 02:56:06;;;;;;;6.87;5.30;;;;;;;5.90;100.00;99564.31;5013130;28;20194;-62
2022/05/30 02:58:32;;;;;;;6.43;5.73;;;;;;;5.77;100.00;99572.50;5013686;28;20163;-60
2022/05/30 03:00:58;;;;;;;7.47;6.20;;;;;;;5.85;100.00;99574.72;4980514;28;20227;-60
2022/05/30 03:03:23;;;;;;;9.07;6.50;;;;;;;5.89;100.00;99572.88;5003747;28;20209;-61
2022/05/30 03:05:49;;;;;;;7.90;6.97;;;;;;;5.89;100.00;99577.97;5013370;28;20276;-60
2022/05/30 03:08:14;;;;;;;8.03;7.23;;;;;;;5.89;100.00;99573.72;5013078;28;20206;-60
2022/05/30 03:10:39;;;;;;;8.70;7.80;;;;;;;5.93;100.00;99580.34;5003249;28;20230;-60
2022/05/30 03:13:06;;;;;;;8.73;7.83;;;;;;;5.92;100.00;99571.00;5012352;28;20625;-60
2022/05/30 03:15:32;;;;;;;9.73;8.57;;;;;;;5.85;100.00;99574.72;5000402;28;20379;-60
2022/05/30 03:17:58;;;;;;;12.30;9.03;;;;;;;5.90;100.00;99580.44;4999365;28;20186;-60
2022/05/30 03:20:24;;;;;;;11.77;9.23;;;;;;;5.94;100.00;99584.53;5003347;28;20337;-60
2022/05/30 03:22:49;;;;;;;11.57;8.97;;;;;;;5.99;100.00;99584.34;4998539;28;20182;-60
2022/05/30 03:25:16;;;;;;;11.43;9.20;;;;;;;5.95;100.00;99575.16;5013192;28;20297;-60
2022/05/30 03:27:42;;;;;;;12.40;9.77;;;;;;;5.87;100.00;99585.69;4995070;28;20179;-60
2022/05/30 03:30:09;;;;;;;15.33;9.53;;;;;;;6.05;100.00;99576.41;4964580;28;20195;-61
2022/05/30 03:32:34;;;;;;;11.23;9.67;;;;;;;5.96;100.00;99580.19;4992045;28;20191;-60
2022/05/30 03:35:00;;;;;;;13.37;10.20;;;;;;;6.01;100.00;99582.56;4993165;28;20253;-59
2022/05/30 03:37:26;;;;;;;12.03;9.63;;;;;;;6.08;100.00;99578.03;4992666;28;20202;-60
2022/05/30 03:39:51;;;;;;;9.40;8.37;;;;;;;6.13;100.00;99581.22;4991773;28;20202;-59
2022/05/30 03:42:17;;;;;;;10.20;8.67;;;;;;;6.19;100.00;99575.84;4998101;28;20218;-60
2022/05/30 03:44:42;;;;;;;12.40;10.10;;;;;;;6.20;100.00;99579.22;5007772;28;20653;-60
2022/05/30 03:47:08;;;;;;;12.43;9.70;;;;;;;6.19;100.00;99575.84;5012171;28;20205;-59
2022/05/30 03:49:34;;;;;;;12.73;10.07;;;;;;;6.10;100.00;99578.78;5010938;28;20186;-59
2022/05/30 03:51:59;;;;;;;15.50;10.07;;;;;;;6.12;100.00;99577.81;5001302;28;20227;-59
2022/05/30 03:54:26;;;;;;;12.30;9.33;;;;;;;6.10;100.00;99582.19;5012371;28;20642;-58
2022/05/30 03:56:51;;;;;;;11.73;10.23;;;;;;;6.25;100.00;99583.22;5010323;28;20202;-59
2022/05/30 03:59:17;;;;;;;13.63;11.00;;;;;;;6.34;100.00;99573.47;5011823;28;20637;-59
2022/05/30 04:01:42;;;;;;;12.53;10.10;;;;;;;6.36;100.00;99585.28;4994861;28;20229;-60
2022/05/30 04:04:07;;;;;;;12.37;9.90;;;;;;;6.39;100.00;99581.78;5012161;28;20295;-59
2022/05/30 04:06:33;;;;;;;12.87;10.23;;;;;;;6.42;100.00;99590.09;5011858;28;20221;-59
2022/05/30 04:08:58;;;;;;;12.03;10.80;;;;;;;6.52;100.00;99594.81;5012169;28;20232;-59
2022/05/30 04:11:23;;;;;;;11.80;10.17;;;;;;;6.41;100.00;99591.03;5012467;28;20232;-59
2022/05/30 04:13:49;;;;;;;12.67;9.47;;;;;;;6.41;100.00;99588.47;5016452;28;20270;-59
2022/05/30 04:16:15;;;;;;;11.77;10.57;;;;;;;6.56;100.00;99586.09;5011408;28;20226;-59
2022/05/30 04:18:41;;;;;;;11.73;10.27;;;;;;;6.71;100.00;99592.22;5011979;28;20174;-59
2022/05/30 04:21:08;;;;;;;11.73;10.43;;;;;;;6.83;100.00;99591.66;4995061;28;20245;-59
2022/05/30 04:23:34;;;;;;;12.73;10.30;;;;;;;6.85;100.00;99594.16;5019262;28;20186;-59
2022/05/30 04:26:03;;;;;;;14.67;11.00;;;;;;;6.96;100.00;99594.47;5011397;28;20179;-59
2022/05/30 04:28:29;;;;;;;11.30;10.13;;;;;;;7.14;100.00;99597.84;5010232;28;20187;-59
2022/05/30 04:30:55;;;;;;;13.03;10.57;;;;;;;7.22;100.00;99592.38;4996737;28;20581;-59
2022/05/30 04:33:20;;;;;;;12.83;10.43;;;;;;;7.37;100.00;99601.03;5010920;28;20193;-58
2022/05/30 04:35:45;;;;;;;12.93;10.73;;;;;;;7.56;100.00;99606.88;5011495;28;20296;-59
2022/05/30 04:38:11;;;;;;;12.30;10.73;;;;;;;7.63;100.00;99609.13;5011046;28;20203;-59
2022/05/30 04:40:36;;;;;;;12.47;10.80;;;;;;;7.81;100.00;99609.94;5001325;28;20231;-59
2022/05/30 04:43:01;;;;;;;13.83;10.90;;;;;;;7.93;100.00;99600.81;5008915;28;20175;-60
2022/05/30 04:45:26;;;;;;;11.77;10.50;;;;;;;8.08;100.00;99603.38;4991880;28;20176;-65
2022/05/30 04:47:52;;;;;;;11.67;10.13;;;;;;;8.19;100.00;99592.59;4991479;28;20179;-59
2022/05/30 04:50:17;;;;;;;12.57;10.60;;;;;;;8.32;100.00;99595.34;4982587;28;20192;-58
2022/05/30 04:52:44;;;;;;;14.13;10.40;;;;;;;8.13;100.00;99603.16;4990326;28;20258;-59
2022/05/30 04:55:11;;;;;;;9.90;8.90;;;;;;;8.38;100.00;99604.41;4990317;28;20182;-59
2022/05/30 04:57:45;;;;;;;10.30;9.30;;;;;;;8.63;100.00;99610.81;4989540;28;20221;-59
2022/05/30 05:00:12;;;;;;;10.00;9.00;;;;;;;8.88;100.00;99610.28;5001378;28;20187;-58
2022/05/30 05:02:38;;;;;;;10.63;8.83;;;;;;;8.93;100.00;99612.63;5010056;28;20189;-59
2022/05/30 05:05:04;;;;;;;10.50;9.43;;;;;;;8.98;100.00;99610.63;5011227;28;20185;-58
2022/05/30 05:07:39;;;;;;;10.27;8.93;;;;;;;9.20;100.00;99617.94;5008939;28;20212;-58
2022/05/30 05:10:26;;;;;;;9.80;8.67;;;;;;;9.29;100.00;99620.00;4999766;28;20593;-59
2022/05/30 05:12:51;;;;;;;10.80;8.10;;;;;;;9.50;100.00;99617.94;4996522;28;20195;-60
2022/05/30 05:15:16;;;;;;;9.73;7.87;;;;;;;9.66;100.00;99620.44;5010943;28;20504;-59
2022/05/30 05:17:42;;;;;;;10.70;8.57;;;;;;;9.73;100.00;99618.34;5009329;28;20183;-59
2022/05/30 05:20:08;;;;;;;11.30;8.80;;;;;;;9.79;100.00;99617.16;5000548;28;20681;-59
2022/05/30 05:22:33;;;;;;;8.63;7.60;;;;;;;9.96;100.00;99626.41;4993391;28;20187;-59
2022/05/30 05:24:58;;;;;;;9.60;7.73;;;;;;;10.09;100.00;99621.38;5010485;28;20179;-58
2022/05/30 05:27:23;;;;;;;9.37;8.37;;;;;;;10.27;99.52;99629.72;5019888;28;20551;-59
2022/05/30 05:29:49;;;;;;;8.63;7.83;;;;;;;10.39;97.53;99641.84;5010826;28;20236;-58
2022/05/30 05:32:15;;;;;;;10.37;8.07;;;;;;;10.43;97.57;99633.03;4999745;28;20218;-59
2022/05/30 05:34:40;;;;;;;9.03;7.87;;;;;;;10.76;96.49;99638.75;5009565;28;20471;-58
2022/05/30 05:37:05;;;;;;;8.20;7.40;;;;;;;10.71;95.77;99633.91;5009341;28;20209;-58
2022/05/30 05:39:31;;;;;;;8.33;6.93;;;;;;;10.90;96.17;99641.31;5010070;28;20193;-58
2022/05/30 05:41:56;;;;;;;9.37;8.00;;;;;;;10.78;95.85;99639.50;4999321;28;20218;-58
2022/05/30 05:44:21;;;;;;;8.17;7.20;;;;;;;10.65;94.50;99640.25;5010141;28;20190;-63
2022/05/30 05:46:47;;;;;;;8.20;7.03;;;;;;;10.60;96.21;99644.84;5009807;28;20662;-58
2022/05/30 05:49:12;;;;;;;10.03;7.40;;;;;;;10.92;95.44;99643.75;5010067;28;20201;-58
2022/05/30 05:51:39;;;;;;;8.40;7.57;;;;;;;11.26;91.18;99641.59;4998935;28;20237;-58
2022/05/30 05:54:06;;;;;;;7.97;7.13;;;;;;;11.44;88.75;99645.56;5017143;28;20620;-57
2022/05/30 05:56:31;;;;;;;7.80;7.00;;;;;;;11.58;87.05;99646.41;5020569;28;20194;-58
2022/05/30 05:58:57;;;;;;;7.27;6.57;;;;;;;12.06;83.18;99640.69;5023048;28;20212;-60
2022/05/30 06:01:28;;;;;;;8.60;6.33;;;;;;;12.09;81.81;99646.44;5000387;28;20223;-58
2022/05/30 06:04:00;;;;;;;6.47;5.87;;;;;;;12.02;81.90;99647.78;4997158;28;20277;-58
2022/05/30 06:06:26;;;;;;;6.60;6.00;;;;;;;12.08;80.87;99643.94;5008256;28;20183;-58
2022/05/30 06:08:53;;;;;;;4.87;4.43;;;;;;;12.28;78.10;99632.28;5008253;28;20293;-59
2022/05/30 06:11:21;;;;;;;5.60;4.20;;;;;;;12.21;78.01;99642.19;5003196;28;20233;-58
2022/05/30 06:13:47;;;;;;;8.00;4.70;;;;;;;12.77;74.60;99637.53;5011754;28;20187;-59
2022/05/30 06:16:21;;;;;;;4.13;3.00;;;;;;;12.97;70.81;99636.91;5028881;28;20259;-58
2022/05/30 06:18:47;;;;;;;5.47;2.40;;;;;;;13.14;67.23;99642.63;5025287;28;20260;-58
2022/05/30 06:21:13;;;;;;;5.13;2.10;;;;;;;13.32;64.41;99645.59;5011708;28;20229;-58
2022/05/30 06:23:39;;;;;;;6.30;1.77;;;;;;;14.29;61.98;99650.47;5030298;28;20245;-58
2022/05/30 06:26:08;;;;;;;2.77;2.00;;;;;;;15.42;55.61;99642.41;5021866;28;20309;-59
2022/05/30 06:28:36;;;;;;;1.93;1.70;;;;;;;16.61;50.29;99645.38;5006480;28;20184;-67
2022/05/30 06:31:09;;;;;;;2.53;1.53;;;;;;;16.74;50.34;99642.53;5002322;28;20234;-58
2022/05/30 06:33:35;;;;;;;2.73;1.67;;;;;;;16.53;50.31;99645.22;5013364;28;20310;-58
2022/05/30 06:36:03;;;;;;;3.00;1.73;;;;;;;16.00;51.20;99654.09;5013366;28;20232;-59
2022/05/30 06:38:28;;;;;;;4.60;2.00;;;;;;;16.16;50.21;99658.78;5013833;28;20284;-59
2022/05/30 06:40:54;;;;;;;2.13;1.77;;;;;;;16.43;49.94;99657.38;4997819;28;20239;-59
2022/05/30 06:43:19;;;;;;;3.63;1.73;;;;;;;17.52;46.77;99653.91;5004404;28;20270;-59
2022/05/30 06:45:48;;;;;;;2.43;1.50;;;;;;;17.00;47.63;99649.81;5013417;28;20183;-59
2022/05/30 06:48:14;;;;;;;5.37;1.67;;;;;;;17.31;47.02;99648.88;5011685;28;20186;-59
2022/05/30 06:50:40;;;;;;;2.93;1.53;;;;;;;17.98;44.70;99659.28;5002905;28;20234;-58
2022/05/30 06:53:06;;;;;;;1.97;1.40;;;;;;;18.39;42.95;99662.41;5000672;28;20191;-59
2022/05/30 06:55:31;;;;;;;2.67;1.50;;;;;;;18.70;42.67;99655.09;5019033;28;20261;-58
2022/05/30 06:58:12;;;;;;;2.80;1.20;;;;;;;18.81;42.72;99658.44;5032396;28;20265;-59
2022/05/30 07:00:37;;;;;;;3.50;1.30;;;;;;;19.11;41.25;99659.06;5009001;28;20574;-59
2022/05/30 07:03:02;;;;;;;1.43;0.87;;;;;;;19.15;40.32;99668.22;5015153;28;20187;-59
2022/05/30 07:05:28;;;;;;;2.30;1.30;;;;;;;18.92;41.41;99660.88;5013950;28;20240;-58
2022/05/30 07:07:57;;;;;;;5.53;1.13;;;;;;;18.95;41.15;99657.16;5013088;28;20210;-59
2022/05/30 07:10:25;;;;;;;3.13;1.10;;;;;;;19.11;40.21;99675.53;5000636;28;20227;-59
2022/05/30 07:12:51;;;;;;;1.90;1.40;;;;;;;19.77;38.45;99668.22;4993182;28;20412;-59
2022/05/30 07:15:16;;;;;;;1.53;1.00;;;;;;;19.08;40.53;99673.22;5001753;28;20453;-58
2022/05/30 07:17:41;;;;;;;3.30;1.20;;;;;;;18.61;40.43;99676.00;5011564;28;20214;-59
2022/05/30 07:20:07;;;;;;;2.10;1.00;;;;;;;19.10;39.98;99676.53;5003239;28;20195;-59
2022/05/30 07:22:33;;;;;;;1.93;1.00;;;;;;;19.35;39.60;99671.50;5012328;28;20175;-58
2022/05/30 07:24:58;;;;;;;3.40;1.40;;;;;;;19.63;38.85;99673.97;5013234;28;20537;-59
2022/05/30 07:27:24;;;;;;;2.83;1.43;;;;;;;20.95;36.36;99664.09;5011689;28;20419;-59
2022/05/30 07:29:49;;;;;;;1.80;0.90;;;;;;;20.67;36.36;99677.41;5012670;28;20179;-58
2022/05/30 07:32:14;;;;;;;1.87;0.80;;;;;;;19.69;38.44;99670.75;4966705;28;20245;-59
2022/05/30 07:34:40;;;;;;;4.53;1.37;;;;;;;18.97;39.15;99670.84;5012954;28;20182;-58
2022/05/30 07:37:06;;;;;;;1.97;1.00;;;;;;;19.24;39.70;99682.16;5012353;28;20211;-58
2022/05/30 07:39:35;;;;;;;2.47;1.20;;;;;;;19.97;38.38;99674.06;5012696;28;20182;-58
2022/05/30 07:42:01;;;;;;;2.30;1.13;;;;;;;19.91;37.93;99679.06;5001937;28;20242;-59
2022/05/30 07:44:26;;;;;;;2.63;1.00;;;;;;;20.70;36.36;99676.28;5013255;28;20198;-58
2022/05/30 07:46:51;;;;;;;1.77;1.27;;;;;;;21.84;34.80;99679.09;5011166;28;20691;-58
2022/05/30 07:49:17;;;;;;;1.47;0.90;;;;;;;22.78;33.05;99679.22;5012791;28;20175;-59
2022/05/30 07:51:44;;;;;;;2.83;1.50;;;;;;;23.21;32.67;99681.41;4997714;28;20234;-58
2022/05/30 07:54:10;;;;;;;2.70;1.30;;;;;;;23.16;31.99;99681.94;5005825;28;20175;-58
2022/05/30 07:56:36;;;;;;;2.47;1.10;;;;;;;22.34;32.69;99674.50;5012271;28;20194;-58
2022/05/30 07:59:01;;;;;;;3.63;1.33;;;;;;;20.83;35.13;99689.72;5011945;28;20996;-59
2022/05/30 08:01:27;;;;;;;2.93;1.23;;;;;;;19.61;37.60;99676.75;5001138;28;20681;-62
2022/05/30 08:03:52;;;;;;;3.23;1.27;;;;;;;20.23;36.67;99690.63;5012009;28;20611;-59
2022/05/30 08:06:26;;;;;;;3.20;1.10;;;;;;;19.18;38.39;99680.97;5011893;28;20175;-59
2022/05/30 08:08:52;;;;;;;3.23;1.20;;;;;;;18.80;40.03;99686.28;5012398;28;20187;-59
2022/05/30 08:11:18;;;;;;;2.47;1.20;;;;;;;17.86;41.72;99689.81;5001719;28;20630;-58
2022/05/30 08:13:47;;;;;;;3.83;1.20;;;;;;;18.14;41.01;99690.72;5010745;28;20191;-58
2022/05/30 08:16:16;;;;;;;2.93;1.37;;;;;;;17.69;42.21;99688.78;5010900;28;20240;-59
2022/05/30 08:18:41;;;;;;;2.63;1.50;;;;;;;16.68;44.26;99691.59;5011571;28;20190;-59
2022/05/30 08:21:07;;;;;;;2.80;1.30;;;;;;;16.17;46.15;99688.16;5010760;28;20676;-60
2022/05/30 08:23:32;;;;;;;3.20;1.30;;;;;;;15.89;45.93;99695.63;5010712;28;20224;-59
2022/05/30 08:25:58;;;;;;;2.60;1.30;;;;;;;15.64;47.21;99685.53;5011152;28;20713;-61
2022/05/30 08:28:23;;;;;;;2.37;1.30;;;;;;;15.73;46.07;99690.91;5011896;28;20258;-59
2022/05/30 08:30:49;;;;;;;4.33;1.17;;;;;;;15.20;47.66;99694.34;5001316;28;20326;-58
2022/05/30 08:33:17;;;;;;;2.17;1.17;;;;;;;15.07;48.52;99695.31;5010910;28;20195;-60
2022/05/30 08:35:45;;;;;;;5.13;1.30;;;;;;;15.08;48.75;99696.13;5011292;28;20199;-59
2022/05/30 08:38:11;;;;;;;3.63;1.27;;;;;;;14.76;50.00;99702.06;5011148;28;20185;-59
2022/05/30 08:43:28;;;;;;;2.63;1.13;;;;;;;14.78;50.68;99700.19;5011364;28;20700;-58
2022/05/30 08:46:06;;;;;;;2.97;1.23;;;;;;;14.74;50.88;99699.63;5011430;28;20209;-59
2022/05/30 08:48:42;;;;;;;1.60;1.23;;;;;;;14.72;50.36;99700.69;5010853;28;20210;-59
2022/05/30 08:51:14;;;;;;;2.10;1.27;;;;;;;14.90;50.38;99712.19;4992798;28;20330;-59
2022/05/30 08:53:54;;;;;;;3.13;1.80;;;;;;;14.42;51.05;99708.09;4984210;28;20210;-59
2022/05/30 08:56:33;;;;;;;3.47;1.37;;;;;;;14.21;52.44;99710.56;4990129;28;20211;-59
2022/05/30 08:59:33;;;;;;;4.00;1.40;;;;;;;14.19;52.42;99705.50;4990726;28;20191;-59
2022/05/30 09:02:13;;;;;;;5.63;1.40;;;;;;;14.28;51.86;99710.94;4983993;28;20237;-59
2022/05/30 09:04:49;;;;;;;3.60;1.23;;;;;;;14.58;51.73;99706.91;5010197;28;20190;-59
2022/05/30 09:07:19;;;;;;;9.10;1.67;;;;;;;14.96;51.12;99703.94;5012014;28;20288;-60
2022/05/30 09:09:51;;;;;;;1.57;1.23;;;;;;;14.98;50.68;99706.38;5046079;28;20212;-59
2022/05/30 09:12:29;;;;;;;2.17;1.43;;;;;;;14.45;52.24;99712.19;5001362;28;20241;-59
2022/05/30 09:15:22;;;;;;;2.53;1.50;;;;;;;14.43;52.97;99719.28;5034483;28;20185;-60
2022/05/30 09:17:54;;;;;;;3.67;1.40;;;;;;;14.27;53.50;99709.28;5009759;28;20653;-61
2022/05/30 09:20:21;;;;;;;3.63;1.50;;;;;;;14.60;53.47;99717.94;5001363;28;20213;-59
2022/05/30 09:22:47;;;;;;;3.13;1.20;;;;;;;14.88;51.80;99713.25;5023263;28;20286;-60
2022/05/30 09:28:02;;;;;;;5.00;1.60;;;;;;;14.55;53.83;99710.56;4992299;28;20262;-59
2022/05/30 09:30:40;;;;;;;2.17;1.27;;;;;;;14.46;54.07;99713.84;4979184;28;20231;-59
2022/05/30 09:33:39;;;;;;;4.47;1.70;;;;;;;14.76;53.83;99717.63;4981739;28;20191;-59
2022/05/30 09:36:17;;;;;;;1.77;1.30;;;;;;;15.14;53.55;99712.00;4989402;28;20681;-59
2022/05/30 09:39:04;;;;;;;4.97;1.60;;;;;;;16.09;51.28;99719.94;4991515;28;20222;-59
2022/05/30 09:41:48;;;;;;;3.20;1.30;;;;;;;16.39;48.41;99710.50;4991838;28;20232;-59
2022/05/30 09:44:16;;;;;;;1.75;1.20;;;;;;;16.55;47.49;99713.44;4996338;28;20425;-58
2022/05/30 09:46:58;;;;;;;3.73;1.83;;;;;;;16.85;48.68;99705.72;4990128;28;20222;-59
2022/05/30 09:49:27;;;;;;;2.23;1.30;;;;;;;18.96;43.88;99700.47;4991416;28;20222;-60
2022/05/30 09:51:55;;;;;;;2.73;1.40;;;;;;;19.71;40.92;99694.06;4979964;28;20235;-59
2022/05/30 09:54:26;;;;;;;3.17;1.40;;;;;;;18.68;42.91;99705.69;4989279;28;20267;-59
2022/05/30 09:56:57;;;;;;;3.37;1.83;;;;;;;18.91;41.53;99700.13;4990822;28;20200;-60
2022/05/30 09:59:36;;;;;;;1.90;1.10;;;;;;;18.00;42.52;99692.00;4994026;28;20203;-59
2022/05/30 10:02:03;;;;;;;2.80;1.10;;;;;;;19.35;41.33;99697.59;4983676;28;20643;-58
2022/05/30 10:04:37;;;;;;;2.67;1.30;;;;;;;21.23;37.11;99687.31;4993596;28;20176;-60
2022/05/30 10:07:15;;;;;;;4.10;1.30;;;;;;;22.76;34.01;99691.69;4995600;28;20281;-69
2022/05/30 10:10:13;;;;;;;2.77;1.10;;;;;;;23.44;32.08;99697.09;4995149;28;20531;-69
2022/05/30 10:12:44;;;;;;;3.27;1.30;;;;;;;24.54;30.74;99694.78;4983641;28;20230;-67
2022/05/30 10:15:28;;;;;;;4.60;1.03;;;;;;;22.52;32.87;99697.88;4984852;28;20187;-69
2022/05/30 10:17:56;;;;;;;4.53;1.60;;;;;;;20.89;34.95;99702.16;5034113;28;20257;-69
2022/05/30 10:20:46;;;;;;;1.60;1.07;;;;;;;19.65;36.80;99695.53;5031717;28;20278;-69
2022/05/30 10:29:53;;;;;;;2.00;1.10;;;;;;;17.73;42.67;99701.34;5032207;28;20189;-69
2022/05/30 10:36:32;;;;;;;3.70;1.50;;;;;;;17.89;40.96;99698.16;5005305;28;20580;-68
2022/05/30 10:39:28;;;;;;;3.70;1.70;;;;;;;17.40;42.08;99700.03;5010395;28;20214;-69
2022/05/30 10:42:09;;;;;;;2.13;1.07;;;;;;;16.98;42.15;99710.69;4984947;28;20237;-69
2022/05/30 10:44:40;;;;;;;2.90;1.20;;;;;;;16.98;41.89;99706.31;5010736;28;20191;-70
2022/05/30 10:47:28;;;;;;;1.93;1.20;;;;;;;16.90;42.19;99704.34;4990683;28;20191;-69
2022/05/30 10:50:05;;;;;;;5.23;1.60;;;;;;;17.08;42.24;99706.34;5006653;28;20190;-68
2022/05/30 10:52:50;;;;;;;3.23;1.30;;;;;;;17.33;40.49;99704.13;4966570;28;20215;-67
2022/05/30 10:55:24;;;;;;;2.97;1.37;;;;;;;17.34;41.38;99713.56;5009815;28;20276;-67
2022/05/30 10:57:59;;;;;;;5.00;1.37;;;;;;;17.37;40.71;99708.91;5010502;28;20206;-68
2022/05/30 11:00:41;;;;;;;2.07;1.20;;;;;;;16.90;40.86;99708.72;4969318;28;20320;-68
2022/05/30 11:03:24;;;;;;;10.87;1.47;;;;;;;17.13;40.93;99705.91;4988392;28;20284;-68
2022/05/30 11:05:51;;;;;;;2.70;1.50;;;;;;;17.55;40.60;99703.88;5009643;28;20438;-67
2022/05/30 11:08:33;;;;;;;3.20;1.30;;;;;;;17.97;38.97;99709.69;5011166;28;20506;-69
2022/05/30 11:11:12;;;;;;;2.63;1.10;;;;;;;17.34;39.84;99713.56;5030017;28;20229;-68
2022/05/30 11:13:50;;;;;;;9.00;1.73;;;;;;;16.95;40.36;99711.78;5039297;28;20185;-66
2022/05/30 11:16:37;;;;;;;3.43;1.27;;;;;;;16.77;43.66;99719.38;5021522;28;20285;-68
2022/05/30 11:19:13;;;;;;;5.77;1.97;;;;;;;16.42;45.87;99720.63;5032146;28;20222;-69
2022/05/30 11:22:29;;;;;;;2.83;1.60;;;;;;;16.38;45.21;99716.66;5034259;28;20295;-68
2022/05/30 11:24:54;;;;;;;2.15;1.70;;;;;;;16.94;44.18;99720.50;4970487;28;20402;-58
2022/05/30 11:27:30;;;;;;;2.77;1.57;;;;;;;16.21;47.29;99723.25;5021210;28;20770;-57
2022/05/30 11:30:07;;;;;;;2.40;1.50;;;;;;;15.75;48.58;99726.13;5048706;28;20264;-57
2022/05/30 11:33:02;;;;;;;2.77;1.47;;;;;;;15.23;50.75;99732.94;4987897;28;20342;-59
2022/05/30 11:35:35;;;;;;;1.93;1.70;;;;;;;15.53;49.66;99734.84;5050172;28;20643;-58
2022/05/30 11:38:36;;;;;;;5.43;2.13;;;;;;;15.48;48.37;99730.00;5050871;28;20664;-58
2022/05/30 11:41:36;;;;;;;3.03;1.80;;;;;;;15.03;50.13;99731.94;5047538;28;20235;-57
2022/05/30 11:44:32;;;;;;;4.57;1.70;;;;;;;15.38;49.15;99731.72;5034460;28;20200;-59
2022/05/30 11:47:06;;;;;;;3.13;1.73;;;;;;;15.52;49.05;99737.53;5010273;28;20187;-59
2022/05/30 11:49:35;;;;;;;3.60;2.37;;;;;;;15.79;48.05;99737.06;5012864;28;20191;-58
2022/05/30 11:52:12;;;;;;;3.03;1.43;;;;;;;15.77;49.21;99733.78;5020252;28;20673;-59
2022/05/30 11:54:46;;;;;;;3.97;1.53;;;;;;;15.98;47.68;99733.78;5031888;28;20266;-58
2022/05/30 11:57:33;;;;;;;2.97;1.50;;;;;;;15.90;47.76;99739.63;5027730;28;20300;-57
2022/05/30 12:00:16;;;;;;;2.67;2.03;;;;;;;16.34;45.60;99738.63;5031681;28;20236;-58
2022/05/30 12:03:38;;;;;;;2.30;1.60;;;;;;;16.39;45.24;99734.69;5020430;28;20685;-57
2022/05/30 12:06:21;;;;;;;1.33;1.23;;;;;;;16.75;44.01;99742.88;4989899;28;20202;-58
2022/05/30 12:09:21;;;;;;;2.45;1.40;;;;;;;17.09;41.13;99733.94;4984171;28;20526;-58
2022/05/30 12:12:24;;;;;;;1.73;1.30;;;;;;;17.17;40.49;99735.88;4999532;28;20260;-58